createdAt,value
2022-09-15T00:00:59.265Z,18.15
2022-09-15T00:03:25.911Z,17.35
2022-09-15T00:05:55.710Z,17.74
2022-09-15T00:08:23.272Z,18.28
2022-09-15T00:11:19.297Z,17.57
2022-09-15T00:13:47.188Z,17.88
2022-09-15T00:16:42.999Z,17.13
2022-09-15T00:26:37.374Z,17.96
2022-09-15T00:33:13.339Z,18.79
2022-09-15T00:35:44.937Z,19.09
2022-09-15T00:38:15.498Z,19.19
2022-09-15T00:47:19.685Z,19.54
2022-09-15T00:49:55.852Z,18.88
2022-09-15T00:57:07.193Z,19.23
2022-09-15T01:07:02.383Z,19.68
2022-09-15T01:10:02.130Z,19.64
2022-09-15T01:12:28.752Z,19.90
2022-09-15T01:14:55.443Z,19.81
2022-09-15T01:17:52.046Z,19.27
2022-09-15T01:20:37.253Z,19.33
2022-09-15T01:23:28.533Z,19.20
2022-09-15T01:37:30.901Z,18.70
2022-09-15T01:40:08.614Z,18.42
2022-09-15T01:46:12.337Z,18.41
2022-09-15T01:49:20.988Z,18.55
2022-09-15T01:52:06.990Z,18.35
2022-09-15T01:54:56.336Z,18.43
2022-09-15T01:57:29.124Z,18.82
2022-09-15T01:59:56.630Z,18.95
2022-09-15T02:02:42.836Z,18.34
2022-09-15T02:05:40.963Z,18.24
2022-09-15T02:12:27.191Z,18.53
2022-09-15T02:14:59.246Z,18.87
2022-09-15T02:18:25.819Z,18.88
2022-09-15T02:21:59.616Z,18.83
2022-09-15T02:24:36.982Z,18.43
2022-09-15T02:27:37.363Z,18.02
2022-09-15T02:33:57.357Z,18.33
2022-09-15T02:39:39.353Z,17.94
2022-09-15T02:42:25.642Z,17.89
2022-09-15T02:45:20.364Z,17.58
2022-09-15T02:47:47.187Z,18.14
2022-09-15T02:50:23.363Z,17.60
2022-09-15T02:56:32.493Z,18.11
2022-09-15T02:59:08.642Z,18.12
2022-09-15T03:01:35.545Z,17.31
2022-09-15T03:04:04.187Z,18.00
2022-09-15T03:06:31.663Z,18.49
2022-09-15T03:08:59.402Z,18.51
2022-09-15T03:11:28.307Z,17.91
2022-09-15T03:14:03.284Z,18.38
2022-09-15T03:16:32.871Z,18.19
2022-09-15T03:19:01.316Z,17.75
2022-09-15T03:21:29.974Z,17.82
2022-09-15T03:24:14.650Z,18.28
2022-09-15T03:27:07.521Z,18.18
2022-09-15T03:34:13.683Z,18.25
2022-09-15T03:45:59.906Z,18.18
2022-09-15T04:00:06.845Z,17.80
2022-09-15T04:03:59.323Z,17.70
2022-09-15T04:06:27.120Z,17.42
2022-09-15T04:09:06.182Z,17.38
2022-09-15T04:15:30.005Z,17.30
2022-09-15T04:18:34.051Z,17.95
2022-09-15T04:25:22.129Z,17.73
2022-09-15T04:34:49.022Z,18.16
2022-09-15T04:37:32.276Z,18.44
2022-09-15T04:43:54.295Z,18.62
2022-09-15T04:46:54.439Z,18.45
2022-09-15T04:49:35.930Z,18.41
2022-09-15T04:52:06.626Z,18.22
2022-09-15T04:54:37.829Z,18.34
2022-09-15T04:57:04.570Z,18.10
2022-09-15T04:59:37.589Z,17.85
2022-09-15T05:05:38.677Z,18.39
2022-09-15T05:08:06.357Z,17.75
2022-09-15T05:10:48.249Z,18.12
2022-09-15T05:13:35.827Z,17.87
2022-09-15T05:16:10.641Z,17.83
2022-09-15T05:19:23.315Z,17.91
2022-09-15T05:26:07.302Z,17.48
2022-09-15T05:29:18.014Z,17.64
2022-09-15T05:32:36.281Z,17.25
2022-09-15T05:38:53.873Z,17.25
2022-09-15T05:41:48.824Z,16.36
2022-09-15T05:44:15.736Z,16.61
2022-09-15T05:50:24.870Z,16.99
2022-09-15T06:02:58.964Z,17.66
2022-09-15T06:05:44.436Z,17.65
2022-09-15T06:08:34.004Z,17.55
2022-09-15T06:11:26.728Z,17.42
2022-09-15T06:13:53.441Z,17.28
2022-09-15T06:16:38.491Z,17.29
2022-09-15T06:19:13.705Z,17.02
2022-09-15T06:22:12.886Z,17.22
2022-09-15T06:24:41.223Z,17.33
2022-09-15T06:27:07.876Z,17.56
2022-09-15T06:33:28.447Z,17.52
2022-09-15T06:35:55.051Z,17.95
2022-09-15T06:38:22.233Z,17.95
2022-09-15T06:40:59.614Z,17.33
2022-09-15T06:43:26.779Z,17.70
2022-09-15T06:45:53.506Z,18.22
2022-09-15T06:48:24.688Z,18.04
2022-09-15T06:50:55.142Z,18.02
2022-09-15T06:53:22.399Z,18.33
2022-09-15T06:55:51.655Z,18.80
2022-09-15T06:58:18.365Z,18.98
2022-09-15T07:01:22.789Z,19.31
2022-09-15T07:08:26.817Z,19.15
2022-09-15T07:10:56.437Z,18.98
2022-09-15T07:13:24.728Z,19.48
2022-09-15T07:15:54.336Z,19.81
2022-09-15T07:18:21.933Z,19.54
2022-09-15T07:20:49.286Z,19.65
2022-09-15T07:23:16.580Z,19.70
2022-09-15T07:25:43.747Z,19.94
2022-09-15T07:28:14.229Z,19.86
2022-09-15T07:30:42.738Z,20.17
2022-09-15T07:33:14.579Z,20.43
2022-09-15T07:35:43.291Z,20.50
2022-09-15T07:38:10.212Z,20.60
2022-09-15T07:40:38.082Z,19.21
2022-09-15T07:43:06.547Z,19.57
2022-09-15T07:45:34.583Z,19.49
2022-09-15T07:48:01.490Z,20.26
2022-09-15T07:50:28.097Z,20.72
2022-09-15T07:52:57.946Z,20.59
2022-09-15T07:55:24.617Z,20.39
2022-09-15T07:58:01.565Z,20.25
2022-09-15T08:00:28.294Z,20.49
2022-09-15T08:02:56.235Z,20.33
2022-09-15T08:05:24.214Z,20.83
2022-09-15T08:07:50.840Z,20.22
2022-09-15T08:10:17.647Z,20.86
2022-09-15T08:12:44.235Z,21.26
2022-09-15T08:15:10.896Z,21.23
2022-09-15T08:17:37.537Z,21.24
2022-09-15T08:20:04.575Z,20.87
2022-09-15T08:22:31.235Z,20.82
2022-09-15T08:24:57.824Z,21.17
2022-09-15T08:27:24.507Z,21.49
2022-09-15T08:29:51.494Z,21.69
2022-09-15T08:32:18.099Z,21.90
2022-09-15T08:34:44.676Z,21.89
2022-09-15T08:37:11.531Z,22.21
2022-09-15T08:39:38.196Z,21.94
2022-09-15T08:42:06.055Z,22.20
2022-09-15T08:44:44.439Z,22.15
2022-09-15T08:47:31.691Z,22.51
2022-09-15T08:50:27.863Z,22.71
2022-09-15T08:53:03.137Z,22.71
2022-09-15T08:55:48.135Z,22.66
2022-09-15T08:58:18.924Z,22.49
2022-09-15T09:00:48.530Z,22.59
2022-09-15T09:03:42.416Z,23.06
2022-09-15T09:06:09.034Z,22.69
2022-09-15T09:08:47.735Z,22.64
2022-09-15T09:11:40.808Z,22.99
2022-09-15T09:14:19.542Z,23.11
2022-09-15T09:16:55.060Z,22.09
2022-09-15T09:19:21.622Z,22.47
2022-09-15T09:22:14.796Z,22.65
2022-09-15T09:24:50.149Z,22.47
2022-09-15T09:27:22.146Z,22.02
2022-09-15T09:29:57.697Z,22.35
2022-09-15T09:32:27.099Z,22.23
2022-09-15T09:35:24.623Z,22.39
2022-09-15T09:37:53.338Z,22.73
2022-09-15T09:40:21.054Z,22.43
2022-09-15T09:42:48.600Z,21.62
2022-09-15T09:45:17.935Z,21.93
2022-09-15T09:47:44.733Z,21.42
2022-09-15T09:50:40.863Z,22.10
2022-09-15T09:53:33.957Z,22.44
2022-09-15T09:56:26.736Z,21.99
2022-09-15T09:58:54.824Z,21.46
2022-09-15T10:01:25.083Z,22.29
2022-09-15T10:04:17.859Z,22.12
2022-09-15T10:06:46.566Z,22.15
2022-09-15T10:09:18.030Z,22.41
2022-09-15T10:11:48.472Z,22.38
2022-09-15T10:14:35.543Z,22.84
2022-09-15T10:17:21.901Z,22.81
2022-09-15T10:19:54.827Z,23.49
2022-09-15T10:22:35.408Z,23.24
2022-09-15T10:25:21.761Z,23.31
2022-09-15T10:28:10.346Z,23.01
2022-09-15T10:30:37.591Z,23.78
2022-09-15T10:33:25.631Z,23.93
2022-09-15T10:35:55.347Z,24.16
2022-09-15T10:38:40.077Z,23.29
2022-09-15T10:41:33.634Z,22.72
2022-09-15T10:44:32.072Z,22.02
2022-09-15T10:47:26.072Z,22.70
2022-09-15T10:50:25.732Z,22.74
2022-09-15T10:53:16.744Z,22.87
2022-09-15T10:56:04.921Z,23.54
2022-09-15T10:59:09.328Z,23.01
2022-09-15T11:02:07.530Z,23.65
2022-09-15T11:04:46.478Z,22.70
2022-09-15T11:07:39.520Z,23.19
2022-09-15T11:10:16.613Z,22.92
2022-09-15T11:13:13.227Z,23.41
2022-09-15T11:16:04.637Z,23.49
2022-09-15T11:19:26.855Z,23.17
2022-09-15T11:22:03.134Z,22.59
2022-09-15T11:24:50.555Z,21.84
2022-09-15T11:27:35.381Z,22.25
2022-09-15T11:30:13.851Z,22.37
2022-09-15T11:33:02.831Z,22.87
2022-09-15T11:35:32.549Z,23.31
2022-09-15T11:38:19.295Z,23.54
2022-09-15T11:41:02.634Z,23.98
2022-09-15T11:43:29.282Z,23.20
2022-09-15T11:45:59.277Z,23.39
2022-09-15T11:48:45.329Z,23.21
2022-09-15T11:51:16.399Z,22.97
2022-09-15T11:54:02.651Z,22.73
2022-09-15T11:56:46.428Z,22.43
2022-09-15T11:59:18.763Z,22.49
2022-09-15T12:02:11.289Z,22.14
2022-09-15T12:04:55.498Z,21.99
2022-09-15T12:07:31.118Z,22.09
2022-09-15T12:10:14.034Z,21.83
2022-09-15T12:12:44.342Z,21.70
2022-09-15T12:15:18.054Z,22.00
2022-09-15T12:17:53.699Z,21.80
2022-09-15T12:20:46.729Z,22.22
2022-09-15T12:26:54.589Z,21.19
2022-09-15T12:29:27.173Z,21.12
2022-09-15T12:32:19.959Z,21.16
2022-09-15T12:34:57.462Z,20.97
2022-09-15T12:37:29.807Z,20.77
2022-09-15T12:39:56.784Z,20.37
2022-09-15T12:42:27.697Z,19.68
2022-09-15T12:45:00.057Z,19.96
2022-09-15T12:47:38.770Z,19.90
2022-09-15T12:50:30.731Z,19.92
2022-09-15T12:53:02.235Z,19.83
2022-09-15T12:55:37.691Z,19.58
2022-09-15T12:58:18.210Z,19.31
2022-09-15T13:01:13.870Z,19.68
2022-09-15T13:06:10.298Z,20.25
2022-09-15T13:08:36.874Z,20.48
2022-09-15T13:11:11.613Z,20.17
2022-09-15T13:14:02.267Z,20.81
2022-09-15T13:17:07.651Z,20.83
2022-09-15T13:19:34.294Z,21.31
2022-09-15T13:22:12.164Z,20.53
2022-09-15T13:25:00.772Z,21.49
2022-09-15T13:27:38.333Z,21.48
2022-09-15T13:30:26.312Z,22.37
2022-09-15T13:33:17.712Z,22.42
2022-09-15T13:36:15.061Z,22.35
2022-09-15T13:39:03.039Z,23.09
2022-09-15T13:42:01.777Z,22.45
2022-09-15T13:45:06.390Z,22.48
2022-09-15T13:47:51.102Z,22.59
2022-09-15T13:50:40.328Z,22.17
2022-09-15T13:53:36.853Z,22.76
2022-09-15T13:56:09.789Z,22.48
2022-09-15T13:58:58.286Z,22.50
2022-09-15T14:01:26.592Z,22.34
2022-09-15T14:03:59.166Z,22.48
2022-09-15T14:06:38.787Z,22.22
2022-09-15T14:09:25.817Z,22.35
2022-09-15T14:11:57.873Z,23.08
2022-09-15T14:14:33.077Z,23.38
2022-09-15T14:16:59.848Z,22.81
2022-09-15T14:19:38.307Z,23.26
2022-09-15T14:22:20.025Z,22.78
2022-09-15T14:24:47.440Z,22.37
2022-09-15T14:27:22.503Z,22.72
2022-09-15T14:29:52.420Z,21.86
2022-09-15T14:32:19.110Z,22.98
2022-09-15T14:40:29.259Z,23.41
2022-09-15T14:43:31.155Z,23.15
2022-09-15T14:46:10.344Z,23.18
2022-09-15T14:48:37.007Z,22.27
2022-09-15T14:51:25.527Z,22.43
2022-09-15T14:53:57.857Z,22.83
2022-09-15T14:56:32.973Z,22.66
2022-09-15T14:59:06.586Z,22.12
2022-09-15T15:01:52.309Z,21.95
2022-09-15T15:04:39.989Z,21.71
2022-09-15T15:07:31.688Z,22.23
2022-09-15T15:10:03.951Z,22.15
2022-09-15T15:12:32.128Z,22.38
2022-09-15T15:15:00.244Z,22.76
2022-09-15T15:17:37.213Z,22.94
2022-09-15T15:20:09.851Z,21.98
2022-09-15T15:22:38.511Z,22.37
2022-09-15T15:25:22.638Z,21.72
2022-09-15T15:27:57.229Z,21.87
2022-09-15T15:30:28.784Z,22.18
2022-09-15T15:33:19.691Z,21.94
2022-09-15T15:35:59.853Z,22.24
2022-09-15T15:38:28.580Z,22.11
2022-09-15T15:41:07.381Z,22.11
2022-09-15T15:43:35.027Z,21.13
2022-09-15T15:46:06.002Z,21.85
2022-09-15T15:48:38.209Z,22.08
2022-09-15T15:51:06.663Z,22.02
2022-09-15T15:53:35.367Z,21.91
2022-09-15T15:56:02.162Z,21.51
2022-09-15T15:58:28.826Z,21.57
2022-09-15T16:00:57.932Z,20.98
2022-09-15T16:03:25.442Z,20.71
2022-09-15T16:05:59.416Z,21.08
2022-09-15T16:08:35.312Z,20.86
2022-09-15T16:11:03.106Z,20.88
2022-09-15T16:13:30.573Z,21.13
2022-09-15T16:15:59.613Z,20.71
2022-09-15T16:18:27.632Z,20.87
2022-09-15T16:20:54.572Z,21.25
2022-09-15T16:23:23.166Z,21.32
2022-09-15T16:26:02.807Z,21.48
2022-09-15T16:28:29.971Z,21.37
2022-09-15T16:30:57.511Z,21.04
2022-09-15T16:33:27.294Z,20.26
2022-09-15T16:35:57.127Z,20.40
2022-09-15T16:38:24.054Z,20.26
2022-09-15T16:40:51.810Z,20.50
2022-09-15T16:43:21.449Z,20.50
2022-09-15T16:45:49.628Z,20.11
2022-09-15T16:48:16.707Z,20.36
2022-09-15T16:51:01.691Z,20.15
2022-09-15T16:53:32.222Z,19.60
2022-09-15T16:55:58.887Z,19.67
2022-09-15T16:58:34.501Z,19.81
2022-09-15T17:01:03.931Z,19.93
2022-09-15T17:03:30.853Z,20.03
2022-09-15T17:06:00.722Z,19.67
2022-09-15T17:08:30.180Z,19.74
2022-09-15T17:11:00.094Z,20.03
2022-09-15T17:13:31.996Z,19.68
2022-09-15T17:16:02.709Z,19.62
2022-09-15T17:18:29.718Z,19.29
2022-09-15T17:20:56.721Z,19.17
2022-09-15T17:23:24.459Z,19.47
2022-09-15T17:25:53.284Z,19.27
2022-09-15T17:28:26.093Z,19.41
2022-09-15T17:31:00.667Z,19.58
2022-09-15T17:33:29.685Z,19.12
2022-09-15T17:35:57.208Z,19.03
2022-09-15T17:38:23.844Z,19.21
2022-09-15T17:40:51.977Z,18.83
2022-09-15T17:43:21.042Z,18.98
2022-09-15T17:45:49.274Z,19.00
2022-09-15T17:48:16.817Z,19.35
2022-09-15T17:50:44.178Z,19.77
2022-09-15T17:53:19.328Z,19.48
2022-09-15T17:55:45.879Z,19.53
2022-09-15T17:58:12.480Z,19.50
2022-09-15T18:00:41.405Z,19.69
2022-09-15T18:03:14.367Z,19.15
2022-09-15T18:05:41.237Z,19.64
2022-09-15T18:08:09.863Z,19.69
2022-09-15T18:10:36.947Z,20.22
2022-09-15T18:13:05.445Z,19.73
2022-09-15T18:15:34.590Z,19.61
2022-09-15T18:18:04.133Z,19.64
2022-09-15T18:20:32.901Z,19.81
2022-09-15T18:22:59.553Z,20.14
2022-09-15T18:25:28.961Z,20.61
2022-09-15T18:27:56.612Z,20.31
2022-09-15T18:30:25.692Z,19.54
2022-09-15T18:32:52.441Z,19.30
2022-09-15T18:35:21.098Z,19.36
2022-09-15T18:37:53.603Z,19.34
2022-09-15T18:40:47.089Z,19.13
2022-09-15T18:43:13.953Z,19.29
2022-09-15T18:45:41.469Z,19.27
2022-09-15T18:48:12.692Z,19.08
2022-09-15T18:50:41.329Z,19.43
2022-09-15T18:53:08.737Z,19.06
2022-09-15T18:55:35.715Z,18.99
2022-09-15T18:58:02.833Z,18.85
2022-09-15T19:00:30.239Z,18.91
2022-09-15T19:03:01.413Z,18.68
2022-09-15T19:05:30.145Z,18.44
2022-09-15T19:07:57.590Z,18.51
2022-09-15T19:10:26.817Z,18.50
2022-09-15T19:12:56.964Z,18.48
2022-09-15T19:15:25.979Z,18.44
2022-09-15T19:17:52.666Z,18.64
2022-09-15T19:20:19.394Z,18.82
2022-09-15T19:22:46.238Z,18.62
2022-09-15T19:25:14.087Z,18.79
2022-09-15T19:27:41.103Z,18.71
2022-09-15T19:30:09.736Z,18.75
2022-09-15T19:32:36.465Z,18.61
2022-09-15T19:35:09.673Z,18.60
2022-09-15T19:37:37.831Z,19.01
2022-09-15T19:40:07.618Z,18.94
2022-09-15T19:42:34.368Z,18.54
2022-09-15T19:45:01.080Z,18.56
2022-09-15T19:47:27.798Z,18.60
2022-09-15T19:49:54.662Z,18.67
2022-09-15T19:52:21.492Z,18.61
2022-09-15T19:54:48.250Z,18.38
2022-09-15T19:57:15.448Z,18.48
2022-09-15T20:00:12.427Z,18.15
2022-09-15T20:02:56.056Z,18.25
2022-09-15T20:05:22.730Z,18.37
2022-09-15T20:07:49.529Z,18.26
2022-09-15T20:10:18.324Z,18.37
2022-09-15T20:12:44.994Z,18.20
2022-09-15T20:15:11.656Z,18.14
2022-09-15T20:17:38.369Z,18.35
2022-09-15T20:20:05.453Z,18.43
2022-09-15T20:22:33.929Z,18.19
2022-09-15T20:25:00.593Z,18.26
2022-09-15T20:27:27.209Z,18.17
2022-09-15T20:29:53.911Z,18.12
2022-09-15T20:32:22.880Z,18.16
2022-09-15T20:34:56.196Z,17.82
2022-09-15T20:37:22.870Z,18.48
2022-09-15T20:39:49.593Z,18.73
2022-09-15T20:42:16.488Z,18.90
2022-09-15T20:44:45.644Z,18.69
2022-09-15T20:47:12.248Z,18.70
2022-09-15T20:49:38.846Z,18.78
2022-09-15T20:52:08.259Z,18.68
2022-09-15T20:54:35.066Z,18.77
2022-09-15T20:57:01.947Z,18.94
2022-09-15T20:59:30.909Z,18.74
2022-09-15T21:01:59.174Z,18.43
2022-09-15T21:04:25.865Z,18.52
2022-09-15T21:06:52.458Z,18.11
2022-09-15T21:09:21.398Z,18.17
2022-09-15T21:11:52.730Z,17.86
2022-09-15T21:14:22.888Z,18.00
2022-09-15T21:16:51.896Z,18.05
2022-09-15T21:19:18.560Z,18.22
2022-09-15T21:21:45.200Z,18.00
2022-09-15T21:24:11.875Z,17.89
2022-09-15T21:26:41.150Z,17.47
2022-09-15T21:29:08.360Z,17.63
2022-09-15T21:31:35.016Z,17.67
2022-09-15T21:34:01.667Z,17.37
2022-09-15T21:36:30.555Z,17.57
2022-09-15T21:38:58.744Z,18.08
2022-09-15T21:41:28.043Z,18.52
2022-09-15T21:43:55.441Z,18.64
2022-09-15T21:46:24.779Z,18.71
2022-09-15T21:48:51.627Z,18.41
2022-09-15T21:51:24.631Z,17.89
2022-09-15T21:53:53.998Z,18.25
2022-09-15T21:56:22.690Z,18.46
2022-09-15T21:58:49.406Z,18.28
2022-09-15T22:01:21.600Z,17.68
2022-09-15T22:03:49.784Z,18.23
2022-09-15T22:06:16.455Z,18.53
2022-09-15T22:08:44.113Z,18.64
2022-09-15T22:11:11.047Z,18.75
2022-09-15T22:13:41.490Z,18.54
2022-09-15T22:16:12.690Z,17.72
2022-09-15T22:18:41.175Z,17.06
2022-09-15T22:21:14.833Z,17.21
2022-09-15T22:23:43.762Z,16.89
2022-09-15T22:26:14.432Z,16.95
2022-09-15T22:28:41.453Z,17.11
2022-09-15T22:31:10.975Z,17.13
2022-09-15T22:33:39.111Z,17.01
2022-09-15T22:36:09.763Z,17.59
2022-09-15T22:38:36.491Z,18.27
2022-09-15T22:41:06.529Z,17.31
2022-09-15T22:43:33.200Z,17.44
2022-09-15T22:45:59.849Z,18.03
2022-09-15T22:48:26.602Z,18.58
2022-09-15T22:50:53.759Z,18.58
2022-09-15T22:53:20.341Z,17.25
2022-09-15T22:55:47.000Z,16.65
2022-09-15T22:58:13.705Z,16.55
2022-09-15T23:00:40.369Z,16.27
2022-09-15T23:03:08.499Z,16.05
2022-09-15T23:05:35.262Z,16.31
2022-09-15T23:08:02.386Z,16.86
2022-09-15T23:10:30.771Z,17.19
2022-09-15T23:13:00.500Z,17.45
2022-09-15T23:15:27.076Z,17.19
2022-09-15T23:17:53.670Z,17.07
2022-09-15T23:20:20.273Z,16.74
2022-09-15T23:22:46.907Z,16.97
2022-09-15T23:25:13.536Z,17.51
2022-09-15T23:27:40.179Z,18.43
2022-09-15T23:30:07.250Z,18.10
2022-09-15T23:32:33.911Z,17.31
2022-09-15T23:35:00.500Z,16.75
2022-09-15T23:37:27.179Z,16.96
2022-09-15T23:39:53.820Z,17.72
2022-09-15T23:42:20.442Z,17.95
2022-09-15T23:44:47.361Z,18.16
2022-09-15T23:47:14.014Z,17.73
2022-09-15T23:49:40.623Z,17.39
2022-09-15T23:52:07.260Z,16.73
2022-09-15T23:54:33.888Z,16.43
2022-09-15T23:57:00.478Z,16.92
2022-09-15T23:59:27.118Z,16.49
